• Join FlightAware (Why Join?)
  • Login
  • US Flag 
Rudolph Flight #1: Arrived! 
06:43AM EST


 

Airport Tracker/Info


-or-


 

Live Flight TrackerFlight Track Log ✈ AMF1324 ✈ 05-Nov-2013 ✈ KBUF - KBGM

Flight Track Log - Related Links

Times and Time Zones

All times are in EST time to prevent confusion due to time zone crossing. See the AMF1324 flight status page for this flight to view local times or setup timezone preferences in your user account.

Time Position Orientation Groundspeed Altitude Reporting Facility
EST Latitude Longitude Course Direction KTS MPH feet Rate Location/Type
06:23AM 42.9333 -78.7500 180° South 140 161 1,500  Level Buffalo TRACON
06:23AM 42.9167 -78.7500 180° South 149 171 2,200 1,860 Climbing Buffalo TRACON
06:24AM 42.8725 -78.7186 152° Southeast 209 241 4,400 1,680 Climbing Cleveland Center
06:25AM 42.8706 -78.6422 92° East 206 237 6,000 1,440 Climbing Cleveland Center
06:26AM 42.8661 -78.5550 94° East 220 253 7,400 1,320 Climbing Cleveland Center
06:27AM 42.8656 -78.4739 91° East 223 257 8,700 1,080 Climbing Cleveland Center
06:28AM 42.8647 -78.3878 91° East 221 254 9,700 840 Climbing Cleveland Center
06:29AM 42.8600 -78.3047 94° East 233 268 10,500 840 Climbing Cleveland Center
06:30AM 42.8550 -78.2150 94° East 237 273 11,500 840 Climbing Cleveland Center
06:31AM 42.8539 -78.1247 91° East 239 275 12,300 720 Climbing Cleveland Center
06:32AM 42.8503 -78.0317 93° East 246 283 13,000 300 Climbing Cleveland Center
06:33AM 42.8439 -77.9317 95° East 264 304 13,000  Level Cleveland Center
06:34AM 42.8369 -77.8269 95° East 276 318 13,000  Level Cleveland Center
06:36AM 42.8294 -77.7261 96° East 269 310 13,000  Level Cleveland Center
06:37AM 42.8047 -77.6353 110° East 255 293 13,000  Level Cleveland Center
06:38AM 42.7694 -77.5514 120° Southeast 252 290 13,000  Level Cleveland Center
06:39AM 42.7222 -77.4539 123° Southeast 254 292 13,000  Level Cleveland Center
06:40AM 42.6828 -77.3736 124° Southeast 253 291 13,000  Level Cleveland Center
06:41AM 42.6444 -77.2936 123° Southeast 252 290 13,000  Level Cleveland Center
06:42AM 42.6061 -77.2106 122° Southeast 257 296 13,000  Level Cleveland Center
06:43AM 42.5694 -77.1286 121° Southeast 255 293 13,000  Level Cleveland Center
06:44AM 42.5339 -77.0447 120° Southeast 255 293 13,100  Climbing Cleveland Center
06:45AM 42.4989 -76.9608 119° Southeast 256 295 13,100  Level Cleveland Center
06:46AM 42.4669 -76.8739 116° Southeast 257 296 13,100  Level Cleveland Center
06:47AM 42.4417 -76.7806 110° East 260 299 13,100 -120 Level New York Center
06:48AM 42.4172 -76.6856 109° East 254 292 12,900 -780 Descending New York Center
06:49AM 42.3825 -76.5897 116° Southeast 266 306 11,600 -1,260 Descending New York Center
06:50AM 42.3542 -76.4892 111° Southeast 278 320 10,400 -1,380 Descending New York Center
06:51AM 42.3311 -76.3642 104° East 288 331 8,600 -1,500 Descending Cleveland Center
06:52AM 42.3139 -76.2808 106° East 278 320 7,400 -1,440 Descending New York Center
06:53AM 42.2931 -76.1894 107° East 283 326 6,100 -1,200 Descending New York Center
06:54AM 42.2767 -76.0956 103° East 283 326 5,100 -1,140 Descending New York Center
06:55AM 42.2611 -76.0242 106° East 241 277 3,900 -1,320 Descending New York Center
06:56AM 42.2319 -75.9744 128° Southeast 182 209 2,600 -1,320 Descending New York Center